Sunday, February 1, 2015, 8:10 AM EST

KPTB, Petersburg, Dinwiddie County Airport

Location: Petersburg, VA, United States Lat: 37.183
Local Time: 8:10 AM EST (13:10 GMT) Lon: -77.517
Time Zone: US/Eastern Elev: 193 ft

Show me the last for .
Show Decoded

2015-02-01 07:55 METAR KPTB 011255Z AUTO 05005KT 10SM SCT100 OVC110 M01/M06 A3029 RMK AO2
                 T10141060 =
2015-02-01 07:35 METAR KPTB 011235Z AUTO 03004KT 10SM OVC100 M02/M05 A3030 RMK AO2 T10181055 =
2015-02-01 07:15 METAR KPTB 011215Z AUTO 00000KT 10SM OVC100 M03/M05 A3030 RMK AO2 T10261049 =
2015-02-01 06:55 METAR KPTB 011155Z AUTO 00000KT 10SM SCT090 OVC110 M03/M05 A3030 RMK AO2
                 T10341053 11017 21048 =
2015-02-01 06:35 METAR KPTB 011135Z AUTO 00000KT 10SM SCT090 SCT110 M04/M06 A3029 RMK AO2
                 T10401061 =
2015-02-01 06:15 METAR KPTB 011115Z AUTO 00000KT 10SM SCT110 M04/M06 A3028 RMK AO2 T10451060 =
2015-02-01 05:35 METAR KPTB 011035Z AUTO 00000KT 10SM OVC100 M04/M06 A3028 RMK AO2 T10371056 =
2015-02-01 05:15 METAR KPTB 011015Z AUTO 00000KT 10SM BKN110 M03/M06 A3029 RMK AO2 T10351062 =
2015-02-01 04:55 METAR KPTB 010955Z AUTO 00000KT 10SM BKN110 M03/M06 A3028 RMK AO2 T10331058 =
2015-02-01 04:35 METAR KPTB 010935Z AUTO 00000KT 10SM BKN110 M03/M05 A3028 RMK AO2 T10271052 =
2015-02-01 04:15 METAR KPTB 010915Z AUTO 00000KT 10SM BKN120 M02/M05 A3027 RMK AO2 T10201047 =
2015-02-01 03:55 METAR KPTB 010855Z AUTO 00000KT 10SM SCT120 M02/M05 A3027 RMK AO2 T10221046 =
2015-02-01 03:35 METAR KPTB 010835Z AUTO 00000KT 10SM BKN120 M02/M06 A3027 RMK AO2 T10171057 =
2015-02-01 03:15 METAR KPTB 010815Z AUTO 00000KT 10SM CLR M02/M05 A3026 RMK AO2 T10251046 =
2015-02-01 02:55 METAR KPTB 010755Z AUTO 20003KT 10SM CLR M03/M05 A3027 RMK AO2 T10261053 =
2015-02-01 02:35 METAR KPTB 010735Z AUTO 00000KT 10SM CLR M03/M05 A3027 RMK AO2 T10261050 =
2015-02-01 02:15 METAR KPTB 010715Z AUTO 00000KT 10SM CLR M03/M05 A3027 RMK AO2 T10331054 =
2015-02-01 01:55 METAR KPTB 010655Z AUTO 00000KT 10SM CLR M04/M06 A3025 RMK AO2 T10411060 =
2015-02-01 01:35 METAR KPTB 010635Z AUTO 23003KT 10SM CLR M04/M07 A3026 RMK AO2 T10441066 =
2015-02-01 01:15 METAR KPTB 010615Z AUTO 00000KT 10SM CLR M05/M07 A3025 RMK AO2 T10471067 =
2015-02-01 00:55 METAR KPTB 010555Z AUTO 00000KT 10SM CLR M05/M07 A3025 RMK AO2 T10471070 11021
                 21054 =
2015-02-01 00:35 METAR KPTB 010535Z AUTO 00000KT 10SM CLR M05/M07 A3025 RMK AO2 T10471075 =
2015-02-01 00:15 METAR KPTB 010515Z AUTO 00000KT 10SM CLR M05/M07 A3027 RMK AO2 T10531075 =
2015-01-31 23:55 METAR KPTB 010455Z AUTO 00000KT 10SM CLR M05/M08 A3026 RMK AO2 T10491080
                 400691095 =
2015-01-31 23:35 METAR KPTB 010435Z AUTO 00000KT 10SM CLR M05/M08 A3027 RMK AO2 T10511077 =
2015-01-31 23:15 METAR KPTB 010415Z AUTO 00000KT 10SM CLR M05/M08 A3027 RMK AO2 T10461076 =
2015-01-31 22:55 METAR KPTB 010355Z AUTO 00000KT 10SM CLR M05/M08 A3027 RMK AO2 T10461080 =
2015-01-31 22:35 METAR KPTB 010335Z AUTO 00000KT 10SM CLR M04/M08 A3028 RMK AO2 T10401080 =
2015-01-31 22:15 METAR KPTB 010315Z AUTO 00000KT 10SM CLR M04/M08 A3028 RMK AO2 T10451076 =
2015-01-31 21:55 METAR KPTB 010255Z AUTO 00000KT 10SM CLR M04/M07 A3028 RMK AO2 T10401073 =
2015-01-31 21:35 METAR KPTB 010235Z AUTO 00000KT 10SM CLR M03/M08 A3028 RMK AO2 T10351076 =
2015-01-31 20:55 METAR KPTB 010155Z AUTO 00000KT 10SM CLR M03/M08 A3028 RMK AO2 T10321084 =
2015-01-31 20:35 METAR KPTB 010135Z AUTO 00000KT 10SM CLR M03/M08 A3028 RMK AO2 T10261084 =
2015-01-31 19:55 METAR KPTB 010055Z AUTO 00000KT 10SM CLR M03/M08 A3029 RMK AO2 T10311079 =
2015-01-31 19:35 METAR KPTB 010035Z AUTO 00000KT 10SM CLR M03/M08 A3029 RMK AO2 T10291085 =
2015-01-31 19:15 METAR KPTB 010015Z AUTO 00000KT 10SM CLR M02/M09 A3029 RMK AO2 T10221086 =
2015-01-31 18:55 METAR KPTB 312355Z AUTO 00000KT 10SM CLR M02/M09 A3029 RMK AO2 T10221091 10069
                 21025 =
2015-01-31 18:35 METAR KPTB 312335Z AUTO 00000KT 10SM CLR M02/M09 A3029 RMK AO2 T10241095 =
2015-01-31 18:15 METAR KPTB 312315Z AUTO 00000KT 10SM CLR M01/M12 A3029 RMK AO2 T10121117 =
2015-01-31 17:55 METAR KPTB 312255Z AUTO 00000KT 10SM CLR 00/M13 A3028 RMK AO2 T00001128 =
2015-01-31 17:35 METAR KPTB 312235Z AUTO 00000KT 10SM CLR 01/M12 A3028 RMK AO2 T00051120 =
2015-01-31 17:15 METAR KPTB 312215Z AUTO 00000KT 10SM CLR 04/M16 A3028 RMK AO2 T00401157 =
2015-01-31 16:55 METAR KPTB 312155Z AUTO 25003KT 10SM CLR 06/M17 A3028 RMK AO2 T00571173 =
2015-01-31 16:35 METAR KPTB 312135Z AUTO 28005KT 10SM CLR 06/M18 A3028 RMK AO2 T00611179 =
2015-01-31 16:15 METAR KPTB 312115Z AUTO 29008KT 10SM CLR 07/M18 A3027 RMK AO2 T00651185 =
2015-01-31 15:55 METAR KPTB 312055Z AUTO 26008G14KT 10SM CLR 07/M18 A3027 RMK AO2 T00651184 =
2015-01-31 15:35 METAR KPTB 312035Z AUTO 26010G17KT 10SM CLR 07/M18 A3027 RMK AO2 T00661180 =
2015-01-31 15:15 METAR KPTB 312015Z AUTO 27007KT 270V340 10SM CLR 06/M17 A3027 RMK AO2 T00621175
                 =
2015-01-31 14:55 METAR KPTB 311955Z AUTO 24007KT 10SM CLR 06/M17 A3027 RMK AO2 T00621173 =
2015-01-31 14:35 METAR KPTB 311935Z AUTO 27007KT 270V330 10SM CLR 06/M17 A3028 RMK AO2 T00581169
                 =
2015-01-31 14:15 METAR KPTB 311915Z AUTO 29006KT 10SM CLR 06/M17 A3029 RMK AO2 T00551169 =
2015-01-31 13:55 METAR KPTB 311855Z AUTO 27008KT 10SM CLR 05/M17 A3029 RMK AO2 T00531168 =
2015-01-31 13:35 METAR KPTB 311835Z AUTO 28006KT 10SM CLR 05/M17 A3030 RMK AO2 T00491173 =
2015-01-31 13:15 METAR KPTB 311815Z AUTO 31007KT 10SM CLR 04/M17 A3031 RMK AO2 T00441174 =
2015-01-31 12:55 METAR KPTB 311755Z AUTO 29008KT 10SM CLR 05/M17 A3032 RMK AO2 T00451169 10045
                 21095 =
2015-01-31 12:35 METAR KPTB 311735Z AUTO 28008KT 10SM CLR 04/M18 A3032 RMK AO2 T00401176 =
2015-01-31 12:15 METAR KPTB 311715Z AUTO 30006KT 10SM CLR 04/M17 A3034 RMK AO2 T00361172 =
2015-01-31 11:55 METAR KPTB 311655Z AUTO 29006KT 270V330 10SM CLR 03/M17 A3036 RMK AO2 T00301166
                 =
2015-01-31 11:35 METAR KPTB 311635Z AUTO 31005KT 10SM CLR 02/M15 A3036 RMK AO2 T00241149 =
2015-01-31 11:15 METAR KPTB 311615Z AUTO 25007KT 10SM CLR 02/M15 A3037 RMK AO2 T00151152 =
2015-01-31 10:55 METAR KPTB 311555Z AUTO 29006KT 10SM CLR 01/M15 A3038 RMK AO2 T00091149 =
2015-01-31 10:35 METAR KPTB 311535Z AUTO 26003KT 10SM CLR 00/M14 A3038 RMK AO2 T10011138 =
2015-01-31 10:15 METAR KPTB 311515Z AUTO 24005KT 10SM CLR 00/M13 A3038 RMK AO2 T10051131 =
2015-01-31 09:55 METAR KPTB 311455Z AUTO 23004KT 10SM CLR M01/M13 A3037 RMK AO2 T10141133 =
2015-01-31 09:35 METAR KPTB 311435Z AUTO 00000KT 10SM CLR M02/M14 A3037 RMK AO2 T10221137 =
2015-01-31 09:15 METAR KPTB 311415Z AUTO 00000KT 10SM CLR M03/M14 A3037 RMK AO2 T10311136 =
2015-01-31 08:55 METAR KPTB 311355Z AUTO 03003KT 10SM CLR M04/M12 A3036 RMK AO2 T10361119 =
2015-01-31 08:35 METAR KPTB 311335Z AUTO 00000KT 10SM CLR M04/M11 A3036 RMK AO2 T10431113 =
2015-01-31 08:15 METAR KPTB 311315Z AUTO 00000KT 10SM CLR M06/M09 A3036 RMK AO2 T10601095 =

Support USWX by starting your Amazon purchase here.